sensor_id;sensor_type;location;lat;lon;timestamp;temperature;humidity
74171;DHT22;62526;50.948;6.590;2022-08-01T00:01:41;21.50;74.20
74171;DHT22;62526;50.948;6.590;2022-08-01T00:04:08;21.50;74.50
74171;DHT22;62526;50.948;6.590;2022-08-01T00:06:34;21.50;74.80
74171;DHT22;62526;50.948;6.590;2022-08-01T00:09:01;21.40;74.80
74171;DHT22;62526;50.948;6.590;2022-08-01T00:11:28;21.40;75.50
74171;DHT22;62526;50.948;6.590;2022-08-01T00:13:54;21.20;78.40
74171;DHT22;62526;50.948;6.590;2022-08-01T00:16:21;21.10;79.70
74171;DHT22;62526;50.948;6.590;2022-08-01T00:18:50;21.10;81.80
74171;DHT22;62526;50.948;6.590;2022-08-01T00:21:16;20.90;81.90
74171;DHT22;62526;50.948;6.590;2022-08-01T00:23:43;20.70;82.80
74171;DHT22;62526;50.948;6.590;2022-08-01T00:26:10;20.50;83.80
74171;DHT22;62526;50.948;6.590;2022-08-01T00:28:36;20.30;84.40
74171;DHT22;62526;50.948;6.590;2022-08-01T00:31:03;20.30;84.80
74171;DHT22;62526;50.948;6.590;2022-08-01T00:33:30;20.30;85.10
74171;DHT22;62526;50.948;6.590;2022-08-01T00:35:56;20.20;85.40
74171;DHT22;62526;50.948;6.590;2022-08-01T00:38:23;20.20;85.10
74171;DHT22;62526;50.948;6.590;2022-08-01T00:40:50;20.30;85.10
74171;DHT22;62526;50.948;6.590;2022-08-01T00:43:16;20.30;85.20
74171;DHT22;62526;50.948;6.590;2022-08-01T00:45:43;20.20;85.20
74171;DHT22;62526;50.948;6.590;2022-08-01T00:48:10;20.20;85.40
74171;DHT22;62526;50.948;6.590;2022-08-01T00:50:36;20.20;85.50
74171;DHT22;62526;50.948;6.590;2022-08-01T00:53:03;20.20;85.50
74171;DHT22;62526;50.948;6.590;2022-08-01T00:55:31;20.20;85.50
74171;DHT22;62526;50.948;6.590;2022-08-01T00:57:56;20.20;85.90
74171;DHT22;62526;50.948;6.590;2022-08-01T01:00:23;20.20;86.00
74171;DHT22;62526;50.948;6.590;2022-08-01T01:02:50;20.20;85.70
74171;DHT22;62526;50.948;6.590;2022-08-01T01:05:16;20.20;86.10
74171;DHT22;62526;50.948;6.590;2022-08-01T01:07:50;20.20;86.20
74171;DHT22;62526;50.948;6.590;2022-08-01T01:10:17;20.10;86.20
74171;DHT22;62526;50.948;6.590;2022-08-01T01:12:52;20.10;86.30
74171;DHT22;62526;50.948;6.590;2022-08-01T01:15:23;20.10;86.20
74171;DHT22;62526;50.948;6.590;2022-08-01T01:17:55;20.10;86.40
74171;DHT22;62526;50.948;6.590;2022-08-01T01:20:21;20.00;86.50
74171;DHT22;62526;50.948;6.590;2022-08-01T01:22:48;20.00;86.40
74171;DHT22;62526;50.948;6.590;2022-08-01T01:30:30;20.10;86.30
74171;DHT22;62526;50.948;6.590;2022-08-01T01:32:58;20.10;86.30
74171;DHT22;62526;50.948;6.590;2022-08-01T01:35:24;20.10;86.20
74171;DHT22;62526;50.948;6.590;2022-08-01T01:37:53;20.10;86.00
74171;DHT22;62526;50.948;6.590;2022-08-01T01:40:17;20.10;85.70
74171;DHT22;62526;50.948;6.590;2022-08-01T01:42:43;20.20;85.50
74171;DHT22;62526;50.948;6.590;2022-08-01T01:45:10;20.20;85.30
74171;DHT22;62526;50.948;6.590;2022-08-01T01:47:37;20.20;84.90
74171;DHT22;62526;50.948;6.590;2022-08-01T01:50:04;20.30;84.40
74171;DHT22;62526;50.948;6.590;2022-08-01T01:52:32;20.30;84.10
74171;DHT22;62526;50.948;6.590;2022-08-01T01:54:58;20.40;84.20
74171;DHT22;62526;50.948;6.590;2022-08-01T01:57:25;20.40;84.20
74171;DHT22;62526;50.948;6.590;2022-08-01T01:59:51;20.40;84.00
74171;DHT22;62526;50.948;6.590;2022-08-01T02:02:18;20.40;83.70
74171;DHT22;62526;50.948;6.590;2022-08-01T02:04:45;20.40;83.60
74171;DHT22;62526;50.948;6.590;2022-08-01T02:07:12;20.40;83.60
74171;DHT22;62526;50.948;6.590;2022-08-01T02:09:39;20.40;83.40
74171;DHT22;62526;50.948;6.590;2022-08-01T02:12:05;20.40;83.60
74171;DHT22;62526;50.948;6.590;2022-08-01T02:14:32;20.40;83.50
74171;DHT22;62526;50.948;6.590;2022-08-01T02:16:58;20.40;83.60
74171;DHT22;62526;50.948;6.590;2022-08-01T02:19:25;20.30;83.70
74171;DHT22;62526;50.948;6.590;2022-08-01T02:22:00;20.30;84.00
74171;DHT22;62526;50.948;6.590;2022-08-01T02:24:32;20.30;83.90
74171;DHT22;62526;50.948;6.590;2022-08-01T02:26:56;20.30;84.20
74171;DHT22;62526;50.948;6.590;2022-08-01T02:29:23;20.20;84.10
74171;DHT22;62526;50.948;6.590;2022-08-01T02:31:48;20.30;84.20
74171;DHT22;62526;50.948;6.590;2022-08-01T02:34:17;20.30;84.10
74171;DHT22;62526;50.948;6.590;2022-08-01T02:36:42;20.30;84.10
74171;DHT22;62526;50.948;6.590;2022-08-01T02:39:09;20.20;84.20
74171;DHT22;62526;50.948;6.590;2022-08-01T02:41:38;20.30;84.30
74171;DHT22;62526;50.948;6.590;2022-08-01T02:44:03;20.20;84.10
74171;DHT22;62526;50.948;6.590;2022-08-01T02:46:36;20.30;84.20
74171;DHT22;62526;50.948;6.590;2022-08-01T02:49:02;20.30;83.90
74171;DHT22;62526;50.948;6.590;2022-08-01T02:51:29;20.30;83.80
74171;DHT22;62526;50.948;6.590;2022-08-01T02:53:55;20.30;83.70
74171;DHT22;62526;50.948;6.590;2022-08-01T02:56:23;20.40;83.80
74171;DHT22;62526;50.948;6.590;2022-08-01T02:58:50;20.40;83.80
74171;DHT22;62526;50.948;6.590;2022-08-01T03:01:16;20.40;83.80
74171;DHT22;62526;50.948;6.590;2022-08-01T03:03:43;20.40;83.70
74171;DHT22;62526;50.948;6.590;2022-08-01T03:06:10;20.40;83.80
74171;DHT22;62526;50.948;6.590;2022-08-01T03:08:37;20.30;84.80
74171;DHT22;62526;50.948;6.590;2022-08-01T03:11:04;20.30;84.10
74171;DHT22;62526;50.948;6.590;2022-08-01T03:13:31;20.30;84.20
74171;DHT22;62526;50.948;6.590;2022-08-01T03:15:58;20.20;84.20
74171;DHT22;62526;50.948;6.590;2022-08-01T03:18:24;20.30;84.30
74171;DHT22;62526;50.948;6.590;2022-08-01T03:20:52;20.30;84.10
74171;DHT22;62526;50.948;6.590;2022-08-01T03:23:19;20.40;84.00
74171;DHT22;62526;50.948;6.590;2022-08-01T03:25:46;20.40;84.00
74171;DHT22;62526;50.948;6.590;2022-08-01T03:28:13;20.40;84.00
74171;DHT22;62526;50.948;6.590;2022-08-01T03:30:39;20.40;84.00
74171;DHT22;62526;50.948;6.590;2022-08-01T03:33:06;20.40;83.90
74171;DHT22;62526;50.948;6.590;2022-08-01T03:35:34;20.40;84.00
74171;DHT22;62526;50.948;6.590;2022-08-01T03:38:00;20.30;84.00
74171;DHT22;62526;50.948;6.590;2022-08-01T03:40:37;20.40;84.30
74171;DHT22;62526;50.948;6.590;2022-08-01T03:43:04;20.40;84.40
74171;DHT22;62526;50.948;6.590;2022-08-01T03:45:32;20.30;84.40
74171;DHT22;62526;50.948;6.590;2022-08-01T03:47:59;20.30;84.30
74171;DHT22;62526;50.948;6.590;2022-08-01T03:50:25;20.30;84.30
74171;DHT22;62526;50.948;6.590;2022-08-01T03:52:53;20.30;84.50
74171;DHT22;62526;50.948;6.590;2022-08-01T03:55:19;20.30;84.50
74171;DHT22;62526;50.948;6.590;2022-08-01T03:57:46;20.30;84.40
74171;DHT22;62526;50.948;6.590;2022-08-01T04:00:13;20.30;84.30
74171;DHT22;62526;50.948;6.590;2022-08-01T04:02:40;20.40;84.60
74171;DHT22;62526;50.948;6.590;2022-08-01T04:05:07;20.30;85.10
74171;DHT22;62526;50.948;6.590;2022-08-01T04:07:34;20.40;84.50
74171;DHT22;62526;50.948;6.590;2022-08-01T04:10:01;20.40;84.20
74171;DHT22;62526;50.948;6.590;2022-08-01T04:12:28;20.40;84.10
74171;DHT22;62526;50.948;6.590;2022-08-01T04:14:55;20.40;84.30
74171;DHT22;62526;50.948;6.590;2022-08-01T04:17:22;20.40;84.30
74171;DHT22;62526;50.948;6.590;2022-08-01T04:19:49;20.40;84.10
74171;DHT22;62526;50.948;6.590;2022-08-01T04:22:16;20.40;84.30
74171;DHT22;62526;50.948;6.590;2022-08-01T04:24:44;20.40;84.60
74171;DHT22;62526;50.948;6.590;2022-08-01T04:27:12;20.40;84.70
74171;DHT22;62526;50.948;6.590;2022-08-01T04:29:38;20.30;84.80
74171;DHT22;62526;50.948;6.590;2022-08-01T04:32:06;20.30;84.80
74171;DHT22;62526;50.948;6.590;2022-08-01T04:34:32;20.30;85.00
74171;DHT22;62526;50.948;6.590;2022-08-01T04:36:59;20.40;84.90
74171;DHT22;62526;50.948;6.590;2022-08-01T04:39:26;20.40;84.60
74171;DHT22;62526;50.948;6.590;2022-08-01T04:41:52;20.40;84.40
74171;DHT22;62526;50.948;6.590;2022-08-01T04:44:20;20.40;84.60
74171;DHT22;62526;50.948;6.590;2022-08-01T04:46:47;20.40;84.60
74171;DHT22;62526;50.948;6.590;2022-08-01T04:49:13;20.40;84.90
74171;DHT22;62526;50.948;6.590;2022-08-01T04:51:49;20.40;84.90
74171;DHT22;62526;50.948;6.590;2022-08-01T04:54:15;20.40;85.00
74171;DHT22;62526;50.948;6.590;2022-08-01T04:56:42;20.30;85.00
74171;DHT22;62526;50.948;6.590;2022-08-01T04:59:08;20.40;85.00
74171;DHT22;62526;50.948;6.590;2022-08-01T05:01:47;20.40;85.00
74171;DHT22;62526;50.948;6.590;2022-08-01T05:04:09;20.40;84.80
74171;DHT22;62526;50.948;6.590;2022-08-01T05:06:36;20.40;85.00
74171;DHT22;62526;50.948;6.590;2022-08-01T05:09:03;20.40;85.90
74171;DHT22;62526;50.948;6.590;2022-08-01T05:11:30;20.40;85.00
74171;DHT22;62526;50.948;6.590;2022-08-01T05:13:57;20.40;85.00
74171;DHT22;62526;50.948;6.590;2022-08-01T05:16:24;20.40;84.70
74171;DHT22;62526;50.948;6.590;2022-08-01T05:18:50;20.50;84.60
74171;DHT22;62526;50.948;6.590;2022-08-01T05:21:17;20.50;84.60
74171;DHT22;62526;50.948;6.590;2022-08-01T05:23:44;20.40;84.80
74171;DHT22;62526;50.948;6.590;2022-08-01T05:26:11;20.40;84.90
74171;DHT22;62526;50.948;6.590;2022-08-01T05:28:37;20.40;84.90
74171;DHT22;62526;50.948;6.590;2022-08-01T05:31:04;20.50;84.70
74171;DHT22;62526;50.948;6.590;2022-08-01T05:33:31;20.50;84.80
74171;DHT22;62526;50.948;6.590;2022-08-01T05:35:58;20.50;85.00
74171;DHT22;62526;50.948;6.590;2022-08-01T05:38:24;20.40;85.50
74171;DHT22;62526;50.948;6.590;2022-08-01T05:40:51;20.30;86.00
74171;DHT22;62526;50.948;6.590;2022-08-01T05:43:18;20.40;86.30
74171;DHT22;62526;50.948;6.590;2022-08-01T05:45:45;20.30;86.80
74171;DHT22;62526;50.948;6.590;2022-08-01T05:48:11;20.30;86.90
74171;DHT22;62526;50.948;6.590;2022-08-01T05:50:38;20.40;86.70
74171;DHT22;62526;50.948;6.590;2022-08-01T05:53:05;20.50;86.30
74171;DHT22;62526;50.948;6.590;2022-08-01T05:55:31;20.50;86.30
74171;DHT22;62526;50.948;6.590;2022-08-01T05:57:58;20.50;86.30
74171;DHT22;62526;50.948;6.590;2022-08-01T06:00:25;20.60;86.20
74171;DHT22;62526;50.948;6.590;2022-08-01T06:02:51;20.70;86.10
74171;DHT22;62526;50.948;6.590;2022-08-01T06:05:18;20.80;85.80
74171;DHT22;62526;50.948;6.590;2022-08-01T06:07:46;21.20;84.10
74171;DHT22;62526;50.948;6.590;2022-08-01T06:10:12;21.20;84.00
74171;DHT22;62526;50.948;6.590;2022-08-01T06:12:39;21.20;83.90
74171;DHT22;62526;50.948;6.590;2022-08-01T06:15:07;21.30;83.60
74171;DHT22;62526;50.948;6.590;2022-08-01T06:17:34;21.30;83.30
74171;DHT22;62526;50.948;6.590;2022-08-01T06:20:02;21.30;83.20
74171;DHT22;62526;50.948;6.590;2022-08-01T06:22:28;21.30;83.50
74171;DHT22;62526;50.948;6.590;2022-08-01T06:24:56;21.20;83.00
74171;DHT22;62526;50.948;6.590;2022-08-01T06:27:23;21.10;83.90
74171;DHT22;62526;50.948;6.590;2022-08-01T06:29:51;21.10;83.80
74171;DHT22;62526;50.948;6.590;2022-08-01T06:32:20;21.10;84.00
74171;DHT22;62526;50.948;6.590;2022-08-01T06:34:50;21.10;84.70
74171;DHT22;62526;50.948;6.590;2022-08-01T06:37:17;21.00;84.60
74171;DHT22;62526;50.948;6.590;2022-08-01T06:39:44;21.10;84.30
74171;DHT22;62526;50.948;6.590;2022-08-01T06:42:11;21.00;84.30
74171;DHT22;62526;50.948;6.590;2022-08-01T06:44:37;21.00;84.70
74171;DHT22;62526;50.948;6.590;2022-08-01T06:47:04;20.90;84.60
74171;DHT22;62526;50.948;6.590;2022-08-01T06:49:31;21.00;84.60
74171;DHT22;62526;50.948;6.590;2022-08-01T06:51:58;21.00;84.30
74171;DHT22;62526;50.948;6.590;2022-08-01T06:54:25;21.10;83.80
74171;DHT22;62526;50.948;6.590;2022-08-01T06:56:53;21.10;83.80
74171;DHT22;62526;50.948;6.590;2022-08-01T06:59:19;21.20;82.90
74171;DHT22;62526;50.948;6.590;2022-08-01T07:01:47;21.40;82.10
74171;DHT22;62526;50.948;6.590;2022-08-01T07:04:13;21.40;82.00
74171;DHT22;62526;50.948;6.590;2022-08-01T07:06:41;21.50;81.70
74171;DHT22;62526;50.948;6.590;2022-08-01T07:09:07;21.60;81.00
74171;DHT22;62526;50.948;6.590;2022-08-01T07:11:34;21.60;80.60
74171;DHT22;62526;50.948;6.590;2022-08-01T07:14:01;21.60;80.40
74171;DHT22;62526;50.948;6.590;2022-08-01T07:16:28;21.80;80.00
74171;DHT22;62526;50.948;6.590;2022-08-01T07:18:55;21.80;79.40
74171;DHT22;62526;50.948;6.590;2022-08-01T07:21:22;21.90;79.40
74171;DHT22;62526;50.948;6.590;2022-08-01T07:23:49;22.30;77.80
74171;DHT22;62526;50.948;6.590;2022-08-01T07:26:16;22.20;77.70
74171;DHT22;62526;50.948;6.590;2022-08-01T07:28:42;22.30;77.00
74171;DHT22;62526;50.948;6.590;2022-08-01T07:31:10;22.50;76.90
74171;DHT22;62526;50.948;6.590;2022-08-01T07:33:37;22.50;76.70
74171;DHT22;62526;50.948;6.590;2022-08-01T07:36:04;22.70;75.60
74171;DHT22;62526;50.948;6.590;2022-08-01T07:38:31;22.70;75.60
74171;DHT22;62526;50.948;6.590;2022-08-01T07:40:57;22.90;75.90
74171;DHT22;62526;50.948;6.590;2022-08-01T07:43:24;23.00;74.30
74171;DHT22;62526;50.948;6.590;2022-08-01T07:45:51;22.90;74.70
74171;DHT22;62526;50.948;6.590;2022-08-01T07:48:18;22.80;74.90
74171;DHT22;62526;50.948;6.590;2022-08-01T07:50:45;22.80;74.90
74171;DHT22;62526;50.948;6.590;2022-08-01T07:53:12;22.90;74.70
74171;DHT22;62526;50.948;6.590;2022-08-01T07:55:38;23.00;74.30
74171;DHT22;62526;50.948;6.590;2022-08-01T07:58:05;23.30;72.50
74171;DHT22;62526;50.948;6.590;2022-08-01T08:00:33;23.40;72.10
74171;DHT22;62526;50.948;6.590;2022-08-01T08:02:59;23.40;72.10
74171;DHT22;62526;50.948;6.590;2022-08-01T08:05:26;23.50;72.80
74171;DHT22;62526;50.948;6.590;2022-08-01T08:07:53;23.50;73.30
74171;DHT22;62526;50.948;6.590;2022-08-01T08:10:19;23.50;73.50
74171;DHT22;62526;50.948;6.590;2022-08-01T08:12:46;23.70;72.70
74171;DHT22;62526;50.948;6.590;2022-08-01T08:15:13;23.50;71.00
74171;DHT22;62526;50.948;6.590;2022-08-01T08:17:40;23.50;71.20
74171;DHT22;62526;50.948;6.590;2022-08-01T08:20:07;23.40;71.70
74171;DHT22;62526;50.948;6.590;2022-08-01T08:22:34;23.40;71.70
74171;DHT22;62526;50.948;6.590;2022-08-01T08:25:01;23.60;71.50
74171;DHT22;62526;50.948;6.590;2022-08-01T08:27:28;23.70;71.50
74171;DHT22;62526;50.948;6.590;2022-08-01T08:29:54;23.80;71.30
74171;DHT22;62526;50.948;6.590;2022-08-01T08:32:21;23.70;71.60
74171;DHT22;62526;50.948;6.590;2022-08-01T08:34:48;23.70;71.80
74171;DHT22;62526;50.948;6.590;2022-08-01T08:37:15;23.50;72.30
74171;DHT22;62526;50.948;6.590;2022-08-01T08:39:42;23.70;71.90
74171;DHT22;62526;50.948;6.590;2022-08-01T08:42:09;23.80;71.30
74171;DHT22;62526;50.948;6.590;2022-08-01T08:44:35;23.80;71.80
74171;DHT22;62526;50.948;6.590;2022-08-01T08:47:02;23.60;71.90
74171;DHT22;62526;50.948;6.590;2022-08-01T08:49:29;23.60;71.80
74171;DHT22;62526;50.948;6.590;2022-08-01T08:51:57;23.80;71.10
74171;DHT22;62526;50.948;6.590;2022-08-01T08:54:24;23.80;71.00
74171;DHT22;62526;50.948;6.590;2022-08-01T08:56:52;23.70;70.80
74171;DHT22;62526;50.948;6.590;2022-08-01T08:59:19;23.70;71.40
74171;DHT22;62526;50.948;6.590;2022-08-01T09:01:45;23.90;70.70
74171;DHT22;62526;50.948;6.590;2022-08-01T09:04:12;24.00;70.00
74171;DHT22;62526;50.948;6.590;2022-08-01T09:06:39;24.10;69.90
74171;DHT22;62526;50.948;6.590;2022-08-01T09:09:07;24.60;70.00
74171;DHT22;62526;50.948;6.590;2022-08-01T09:11:33;24.50;69.10
74171;DHT22;62526;50.948;6.590;2022-08-01T09:14:03;24.70;68.20
74171;DHT22;62526;50.948;6.590;2022-08-01T09:16:30;24.40;68.00
74171;DHT22;62526;50.948;6.590;2022-08-01T09:19:12;24.30;68.50
74171;DHT22;62526;50.948;6.590;2022-08-01T09:21:38;24.30;68.10
74171;DHT22;62526;50.948;6.590;2022-08-01T09:24:12;24.30;68.70
74171;DHT22;62526;50.948;6.590;2022-08-01T09:26:32;24.30;68.30
74171;DHT22;62526;50.948;6.590;2022-08-01T09:28:58;24.50;69.10
74171;DHT22;62526;50.948;6.590;2022-08-01T09:31:26;24.60;68.50
74171;DHT22;62526;50.948;6.590;2022-08-01T09:33:55;24.90;67.40
74171;DHT22;62526;50.948;6.590;2022-08-01T09:36:20;25.10;65.70
74171;DHT22;62526;50.948;6.590;2022-08-01T09:38:47;25.30;65.10
74171;DHT22;62526;50.948;6.590;2022-08-01T09:41:13;25.20;65.80
74171;DHT22;62526;50.948;6.590;2022-08-01T09:43:40;25.30;65.70
74171;DHT22;62526;50.948;6.590;2022-08-01T09:46:09;25.30;65.90
74171;DHT22;62526;50.948;6.590;2022-08-01T09:48:35;25.30;65.80
74171;DHT22;62526;50.948;6.590;2022-08-01T09:51:03;25.40;65.00
74171;DHT22;62526;50.948;6.590;2022-08-01T09:53:39;25.50;64.40
74171;DHT22;62526;50.948;6.590;2022-08-01T09:56:08;25.70;63.70
74171;DHT22;62526;50.948;6.590;2022-08-01T09:58:23;25.80;63.00
74171;DHT22;62526;50.948;6.590;2022-08-01T10:00:59;26.00;62.50
74171;DHT22;62526;50.948;6.590;2022-08-01T10:03:26;26.30;61.60
74171;DHT22;62526;50.948;6.590;2022-08-01T10:05:53;26.20;60.10
74171;DHT22;62526;50.948;6.590;2022-08-01T10:08:19;26.10;59.30
74171;DHT22;62526;50.948;6.590;2022-08-01T10:11:22;26.10;59.60
74171;DHT22;62526;50.948;6.590;2022-08-01T10:13:31;26.20;60.30
74171;DHT22;62526;50.948;6.590;2022-08-01T10:15:58;25.40;62.80
74171;DHT22;62526;50.948;6.590;2022-08-01T10:18:25;25.10;64.00
74171;DHT22;62526;50.948;6.590;2022-08-01T10:20:51;25.10;64.40
74171;DHT22;62526;50.948;6.590;2022-08-01T10:23:18;25.20;64.30
74171;DHT22;62526;50.948;6.590;2022-08-01T10:25:45;25.10;64.10
74171;DHT22;62526;50.948;6.590;2022-08-01T10:28:14;25.10;63.50
74171;DHT22;62526;50.948;6.590;2022-08-01T10:30:41;25.30;62.80
74171;DHT22;62526;50.948;6.590;2022-08-01T10:33:06;25.20;63.20
74171;DHT22;62526;50.948;6.590;2022-08-01T10:35:33;25.20;62.70
74171;DHT22;62526;50.948;6.590;2022-08-01T10:38:00;25.20;63.80
74171;DHT22;62526;50.948;6.590;2022-08-01T10:40:26;25.40;63.10
74171;DHT22;62526;50.948;6.590;2022-08-01T10:42:53;25.70;62.30
74171;DHT22;62526;50.948;6.590;2022-08-01T10:45:20;26.00;61.10
74171;DHT22;62526;50.948;6.590;2022-08-01T10:50:41;26.30;59.00
74171;DHT22;62526;50.948;6.590;2022-08-01T10:53:13;26.20;60.40
74171;DHT22;62526;50.948;6.590;2022-08-01T10:55:48;26.20;59.60
74171;DHT22;62526;50.948;6.590;2022-08-01T10:58:19;25.80;60.40
74171;DHT22;62526;50.948;6.590;2022-08-01T11:00:40;25.70;60.50
74171;DHT22;62526;50.948;6.590;2022-08-01T11:03:07;25.80;60.80
74171;DHT22;62526;50.948;6.590;2022-08-01T11:05:34;26.20;60.20
74171;DHT22;62526;50.948;6.590;2022-08-01T11:08:03;26.60;57.10
74171;DHT22;62526;50.948;6.590;2022-08-01T11:13:03;27.10;54.60
74171;DHT22;62526;50.948;6.590;2022-08-01T11:15:29;27.00;54.30
74171;DHT22;62526;50.948;6.590;2022-08-01T11:17:57;27.40;53.50
74171;DHT22;62526;50.948;6.590;2022-08-01T11:20:23;27.70;52.50
74171;DHT22;62526;50.948;6.590;2022-08-01T11:26:11;27.80;51.30
74171;DHT22;62526;50.948;6.590;2022-08-01T11:28:37;28.00;53.10
74171;DHT22;62526;50.948;6.590;2022-08-01T11:31:25;28.40;49.90
74171;DHT22;62526;50.948;6.590;2022-08-01T11:33:51;28.50;50.70
74171;DHT22;62526;50.948;6.590;2022-08-01T11:36:18;28.90;50.30
74171;DHT22;62526;50.948;6.590;2022-08-01T11:38:48;29.00;49.20
74171;DHT22;62526;50.948;6.590;2022-08-01T11:41:16;29.30;47.50
74171;DHT22;62526;50.948;6.590;2022-08-01T11:44:00;29.00;49.00
74171;DHT22;62526;50.948;6.590;2022-08-01T11:49:26;29.10;47.80
74171;DHT22;62526;50.948;6.590;2022-08-01T11:52:02;29.30;46.50
74171;DHT22;62526;50.948;6.590;2022-08-01T11:54:29;28.90;47.70
74171;DHT22;62526;50.948;6.590;2022-08-01T11:56:57;28.90;48.20
74171;DHT22;62526;50.948;6.590;2022-08-01T11:59:24;29.00;48.70
74171;DHT22;62526;50.948;6.590;2022-08-01T12:01:50;29.20;48.70
74171;DHT22;62526;50.948;6.590;2022-08-01T12:04:17;29.50;47.50
74171;DHT22;62526;50.948;6.590;2022-08-01T12:06:44;29.90;46.10
74171;DHT22;62526;50.948;6.590;2022-08-01T12:09:18;30.30;43.80
74171;DHT22;62526;50.948;6.590;2022-08-01T12:11:43;30.20;43.70
74171;DHT22;62526;50.948;6.590;2022-08-01T12:14:16;30.10;44.90
74171;DHT22;62526;50.948;6.590;2022-08-01T12:16:47;30.10;44.90
74171;DHT22;62526;50.948;6.590;2022-08-01T12:19:08;30.10;45.10
74171;DHT22;62526;50.948;6.590;2022-08-01T12:21:36;29.90;44.60
74171;DHT22;62526;50.948;6.590;2022-08-01T12:24:02;29.80;44.60
74171;DHT22;62526;50.948;6.590;2022-08-01T12:26:39;29.40;46.10
74171;DHT22;62526;50.948;6.590;2022-08-01T12:29:05;29.30;46.90
74171;DHT22;62526;50.948;6.590;2022-08-01T12:31:34;29.20;46.40
74171;DHT22;62526;50.948;6.590;2022-08-01T12:34:25;29.10;46.40
74171;DHT22;62526;50.948;6.590;2022-08-01T12:36:52;29.10;46.70
74171;DHT22;62526;50.948;6.590;2022-08-01T12:39:19;28.70;44.40
74171;DHT22;62526;50.948;6.590;2022-08-01T12:41:45;28.90;45.50
74171;DHT22;62526;50.948;6.590;2022-08-01T12:44:13;29.50;43.60
74171;DHT22;62526;50.948;6.590;2022-08-01T12:46:40;30.00;40.90
74171;DHT22;62526;50.948;6.590;2022-08-01T12:49:06;30.30;40.00
74171;DHT22;62526;50.948;6.590;2022-08-01T12:51:33;29.80;41.70
74171;DHT22;62526;50.948;6.590;2022-08-01T12:54:00;29.80;42.80
74171;DHT22;62526;50.948;6.590;2022-08-01T12:56:31;30.40;40.60
74171;DHT22;62526;50.948;6.590;2022-08-01T12:58:58;30.80;40.30
74171;DHT22;62526;50.948;6.590;2022-08-01T13:01:26;30.70;40.00
74171;DHT22;62526;50.948;6.590;2022-08-01T13:03:59;30.60;40.50
74171;DHT22;62526;50.948;6.590;2022-08-01T13:06:24;30.60;40.70
74171;DHT22;62526;50.948;6.590;2022-08-01T13:08:50;30.70;40.70
74171;DHT22;62526;50.948;6.590;2022-08-01T13:11:18;31.00;40.80
74171;DHT22;62526;50.948;6.590;2022-08-01T13:13:50;31.40;39.00
74171;DHT22;62526;50.948;6.590;2022-08-01T13:16:14;31.40;38.90
74171;DHT22;62526;50.948;6.590;2022-08-01T13:18:40;31.70;37.30
74171;DHT22;62526;50.948;6.590;2022-08-01T13:21:12;31.00;38.30
74171;DHT22;62526;50.948;6.590;2022-08-01T13:23:39;30.20;40.10
74171;DHT22;62526;50.948;6.590;2022-08-01T13:26:06;29.70;41.30
74171;DHT22;62526;50.948;6.590;2022-08-01T13:28:33;29.70;41.20
74171;DHT22;62526;50.948;6.590;2022-08-01T13:31:02;29.30;41.90
74171;DHT22;62526;50.948;6.590;2022-08-01T13:33:28;29.20;42.70
74171;DHT22;62526;50.948;6.590;2022-08-01T13:35:55;29.10;42.90
74171;DHT22;62526;50.948;6.590;2022-08-01T13:38:22;29.20;42.30
74171;DHT22;62526;50.948;6.590;2022-08-01T13:40:48;29.20;42.20
74171;DHT22;62526;50.948;6.590;2022-08-01T13:43:14;29.40;41.60
74171;DHT22;62526;50.948;6.590;2022-08-01T13:45:41;29.50;41.50
74171;DHT22;62526;50.948;6.590;2022-08-01T13:48:08;30.00;40.10
74171;DHT22;62526;50.948;6.590;2022-08-01T13:50:35;30.00;40.10
74171;DHT22;62526;50.948;6.590;2022-08-01T13:53:02;30.10;39.10
74171;DHT22;62526;50.948;6.590;2022-08-01T13:55:29;30.10;39.60
74171;DHT22;62526;50.948;6.590;2022-08-01T13:57:55;30.00;38.90
74171;DHT22;62526;50.948;6.590;2022-08-01T14:00:22;29.60;40.20
74171;DHT22;62526;50.948;6.590;2022-08-01T14:02:49;29.70;40.10
74171;DHT22;62526;50.948;6.590;2022-08-01T14:05:16;29.80;39.70
74171;DHT22;62526;50.948;6.590;2022-08-01T14:07:43;30.00;39.90
74171;DHT22;62526;50.948;6.590;2022-08-01T14:10:09;30.40;39.40
74171;DHT22;62526;50.948;6.590;2022-08-01T14:12:36;30.60;37.60
74171;DHT22;62526;50.948;6.590;2022-08-01T14:15:04;30.70;38.00
74171;DHT22;62526;50.948;6.590;2022-08-01T14:17:32;30.70;37.90
74171;DHT22;62526;50.948;6.590;2022-08-01T14:19:57;30.90;37.80
74171;DHT22;62526;50.948;6.590;2022-08-01T14:22:24;30.90;37.20
74171;DHT22;62526;50.948;6.590;2022-08-01T14:24:51;30.40;37.30
74171;DHT22;62526;50.948;6.590;2022-08-01T14:27:17;30.10;38.60
74171;DHT22;62526;50.948;6.590;2022-08-01T14:29:44;29.80;39.00
74171;DHT22;62526;50.948;6.590;2022-08-01T14:32:11;29.90;39.80
74171;DHT22;62526;50.948;6.590;2022-08-01T14:34:38;30.00;39.20
74171;DHT22;62526;50.948;6.590;2022-08-01T14:37:05;30.00;38.90
74171;DHT22;62526;50.948;6.590;2022-08-01T14:39:31;30.00;40.10
74171;DHT22;62526;50.948;6.590;2022-08-01T14:41:58;30.30;39.10
74171;DHT22;62526;50.948;6.590;2022-08-01T14:44:25;30.50;38.80
74171;DHT22;62526;50.948;6.590;2022-08-01T14:46:51;31.00;39.30
74171;DHT22;62526;50.948;6.590;2022-08-01T14:49:18;31.40;40.40
74171;DHT22;62526;50.948;6.590;2022-08-01T14:51:45;31.50;40.20
74171;DHT22;62526;50.948;6.590;2022-08-01T14:54:12;31.20;39.70
74171;DHT22;62526;50.948;6.590;2022-08-01T14:56:39;30.80;40.20
74171;DHT22;62526;50.948;6.590;2022-08-01T14:59:05;30.70;41.80
74171;DHT22;62526;50.948;6.590;2022-08-01T15:01:32;30.70;43.60
74171;DHT22;62526;50.948;6.590;2022-08-01T15:03:59;30.90;43.80
74171;DHT22;62526;50.948;6.590;2022-08-01T15:06:26;31.50;43.10
74171;DHT22;62526;50.948;6.590;2022-08-01T15:08:52;32.40;42.10
74171;DHT22;62526;50.948;6.590;2022-08-01T15:11:19;33.20;40.40
74171;DHT22;62526;50.948;6.590;2022-08-01T15:13:47;32.10;40.90
74171;DHT22;62526;50.948;6.590;2022-08-01T15:16:13;32.10;40.90
74171;DHT22;62526;50.948;6.590;2022-08-01T15:18:41;31.00;44.10
74171;DHT22;62526;50.948;6.590;2022-08-01T15:21:07;30.90;44.00
74171;DHT22;62526;50.948;6.590;2022-08-01T15:23:34;30.90;44.20
74171;DHT22;62526;50.948;6.590;2022-08-01T15:26:02;31.40;43.70
74171;DHT22;62526;50.948;6.590;2022-08-01T15:28:28;31.40;42.90
74171;DHT22;62526;50.948;6.590;2022-08-01T15:30:55;30.90;43.50
74171;DHT22;62526;50.948;6.590;2022-08-01T15:33:21;30.30;45.50
74171;DHT22;62526;50.948;6.590;2022-08-01T15:35:48;29.80;46.60
74171;DHT22;62526;50.948;6.590;2022-08-01T15:38:15;29.90;46.60
74171;DHT22;62526;50.948;6.590;2022-08-01T15:40:42;29.80;46.50
74171;DHT22;62526;50.948;6.590;2022-08-01T15:43:09;30.30;45.90
74171;DHT22;62526;50.948;6.590;2022-08-01T15:45:35;30.50;45.30
74171;DHT22;62526;50.948;6.590;2022-08-01T15:48:02;30.70;44.50